Alm Zurich — V7NG2 — position and weather

sailwx.info

Track history (hours):
 
Tides and Currents Weather Stations Pressure Air Temp Water Temp Dewpoint Dewpoint Depression Visibility Wind Speed Wind Dir Waves Ship Positions

Alm Zurich

Last reported at 2016-Jul-29 21:19 UTC. Time now 2016-Jul-29 21:39 UTC.
Position N 30°32' E 122°38'.

Length 294 m; draft 7.2 m.

Type: Cargo ship. MMSI: 538002956.

Date/timePositionNaut miles runAvg speedWind from/ knotsBaromVisibWave heightAir tempDewpointWater temp
2016-Jul-29 21:19N 30°32' E 122°38'911.0
2016-Jul-29 20:29N 30°37' E 122°47'9 9.6
2016-Jul-29 19:31N 30°45' E 122°53'6410.8
2016-Jul-29 13:33N 31°17' E 121°48'9 8.4
2016-Jul-29 12:31N 31°20' E 121°39'0 0.0
2016-Jul-29 11:20N 31°20' E 121°39'0 0.1
2016-Jul-29 10:26N 31°20' E 121°39'0 0.0
2016-Jul-29 09:26N 31°20' E 121°39'0 0.1
2016-Jul-29 08:26N 31°20' E 121°39'0 0.0
2016-Jul-29 07:20N 31°20' E 121°39'0 0.0
2016-Jul-29 06:32N 31°20' E 121°39'0 0.0
2016-Jul-29 02:14N 31°20' E 121°39'0 0.0
2016-Jul-28 22:26N 31°20' E 121°39'1 1.0
2016-Jul-28 21:33N 31°21' E 121°40'1110.3
2016-Jul-28 20:31N 31°16' E 121°51'1412.0
2016-Jul-28 19:22N 31°13' E 122°07'1311.4
2016-Jul-28 18:13N 31°06' E 122°20'6 9.6
2016-Jul-28 17:33N 31°07' E 122°27'9 8.5
2016-Jul-28 16:32N 31°07' E 122°37'1312.0
2016-Jul-28 15:27N 31°07' E 122°52'1314.0
2016-Jul-28 14:33N 31°07' E 123°07'  
Track history (hours):
 
Tides and Currents Weather Stations Pressure Air Temp Water Temp Dewpoint Dewpoint Depression Visibility Wind Speed Wind Dir Waves Ship Positions

Alm Zurich

Last reported at 2016-Jul-29 21:19 UTC. Time now 2016-Jul-29 21:39 UTC.
Position N 30°32' E 122°38'.

Length 294 m; draft 7.2 m.

Type: Cargo ship. MMSI: 538002956.

Date/timePositionNaut miles runAvg speedWind from/ knotsBaromVisibWave heightAir tempDewpointWater temp
2016-Jul-29 21:19N 30°32' E 122°38'911.0
2016-Jul-29 20:29N 30°37' E 122°47'9 9.6
2016-Jul-29 19:31N 30°45' E 122°53'6410.8
2016-Jul-29 13:33N 31°17' E 121°48'9 8.4
2016-Jul-29 12:31N 31°20' E 121°39'0 0.0
2016-Jul-29 11:20N 31°20' E 121°39'0 0.1
2016-Jul-29 10:26N 31°20' E 121°39'0 0.0
2016-Jul-29 09:26N 31°20' E 121°39'0 0.1
2016-Jul-29 08:26N 31°20' E 121°39'0 0.0
2016-Jul-29 07:20N 31°20' E 121°39'0 0.0
2016-Jul-29 06:32N 31°20' E 121°39'0 0.0
2016-Jul-29 02:14N 31°20' E 121°39'0 0.0
2016-Jul-28 22:26N 31°20' E 121°39'1 1.0
2016-Jul-28 21:33N 31°21' E 121°40'1110.3
2016-Jul-28 20:31N 31°16' E 121°51'1412.0
2016-Jul-28 19:22N 31°13' E 122°07'1311.4
2016-Jul-28 18:13N 31°06' E 122°20'6 9.6
2016-Jul-28 17:33N 31°07' E 122°27'9 8.5
2016-Jul-28 16:32N 31°07' E 122°37'1312.0
2016-Jul-28 15:27N 31°07' E 122°52'1314.0
2016-Jul-28 14:33N 31°07' E 123°07'  

Dump ship's entire track history